Time;durP1;ratioP1;P1;durP2;ratioP2;P2;SDS_P1;SDS_P2;PMS_P1;PMS_P2;Temp;Humidity;BMP_temperature;BMP_pressure;BME280_temperature;BME280_humidity;BME280_pressure;Samples;Min_cycle;Max_cycle;Signal;HPM_P1;HPM_P2
2023/04/30 00:01:53;;;;;;;6.95;6.03;;;11.40;89.10;;;;;;5071163;28;20045;-61
2023/04/30 00:04:18;;;;;;;6.65;5.57;;;11.30;89.90;;;;;;5071395;28;20025;-61
2023/04/30 00:06:44;;;;;;;7.82;5.20;;;11.40;90.20;;;;;;5071730;28;20025;-60
2023/04/30 00:09:09;;;;;;;10.55;5.25;;;11.40;89.60;;;;;;5071497;28;20036;-60
2023/04/30 00:11:35;;;;;;;7.03;6.32;;;11.30;89.80;;;;;;5071608;28;20033;-60
2023/04/30 00:14:01;;;;;;;6.05;5.22;;;11.30;90.90;;;;;;5071329;28;20024;-60
2023/04/30 00:16:26;;;;;;;7.75;5.93;;;11.30;91.20;;;;;;5071066;28;20459;-60
2023/04/30 00:18:52;;;;;;;8.43;6.25;;;11.30;91.60;;;;;;5070987;28;20111;-61
2023/04/30 00:21:18;;;;;;;5.97;5.38;;;11.30;91.20;;;;;;5071429;28;20113;-61
2023/04/30 00:23:43;;;;;;;6.30;5.68;;;11.30;91.80;;;;;;5071296;28;20095;-61
2023/04/30 00:26:09;;;;;;;7.03;5.55;;;11.30;91.50;;;;;;5071320;28;20032;-61
2023/04/30 00:28:35;;;;;;;7.15;5.38;;;11.30;91.70;;;;;;5070927;28;20063;-61
2023/04/30 00:31:01;;;;;;;7.10;5.30;;;11.30;91.30;;;;;;5071058;28;20407;-61
2023/04/30 00:33:27;;;;;;;8.50;4.90;;;11.40;92.20;;;;;;5071310;28;20327;-61
2023/04/30 00:35:52;;;;;;;5.50;5.03;;;11.30;91.10;;;;;;5073780;28;20108;-61
2023/04/30 00:38:18;;;;;;;5.32;4.82;;;11.40;91.20;;;;;;5073638;28;20107;-61
2023/04/30 00:40:45;;;;;;;6.78;5.70;;;11.40;90.40;;;;;;5075345;28;20648;-60
2023/04/30 00:43:11;;;;;;;13.75;5.20;;;11.40;90.40;;;;;;5075024;28;20418;-61
2023/04/30 00:45:36;;;;;;;6.15;5.55;;;11.40;91.20;;;;;;5074860;28;20119;-60
2023/04/30 00:48:02;;;;;;;8.40;4.72;;;11.40;91.70;;;;;;5074937;28;20056;-60
2023/04/30 00:50:28;;;;;;;7.40;5.95;;;11.40;92.00;;;;;;5074563;28;20067;-60
2023/04/30 00:52:54;;;;;;;6.47;5.60;;;11.40;92.20;;;;;;5074785;28;20591;-60
2023/04/30 00:55:20;;;;;;;5.68;5.18;;;11.40;92.90;;;;;;5074418;28;20025;-60
2023/04/30 00:57:46;;;;;;;7.35;6.03;;;11.40;93.50;;;;;;5074684;28;20468;-60
2023/04/30 01:00:12;;;;;;;5.72;5.20;;;11.40;93.80;;;;;;5074629;28;20044;-60
2023/04/30 01:02:39;;;;;;;5.82;5.25;;;11.40;93.30;;;;;;5074727;28;20026;-60
2023/04/30 01:05:06;;;;;;;7.35;5.82;;;11.40;93.20;;;;;;5074628;28;20418;-60
2023/04/30 01:07:33;;;;;;;5.85;5.35;;;11.40;93.50;;;;;;5074724;28;20363;-60
2023/04/30 01:09:59;;;;;;;11.25;5.50;;;11.40;92.40;;;;;;5074584;28;20020;-61
2023/04/30 01:12:34;;;;;;;7.43;5.40;;;11.30;92.40;;;;;;5074311;28;20023;-61
2023/04/30 01:15:05;;;;;;;7.13;6.07;;;11.40;93.50;;;;;;5074170;28;20024;-61
2023/04/30 01:17:47;;;;;;;6.30;5.68;;;11.40;93.40;;;;;;5074409;28;20021;-60
2023/04/30 01:20:13;;;;;;;5.30;4.82;;;11.40;93.30;;;;;;5074311;28;20025;-60
2023/04/30 01:22:56;;;;;;;8.48;5.05;;;11.40;93.30;;;;;;5074218;28;20468;-60
2023/04/30 01:25:54;;;;;;;6.40;5.43;;;11.40;93.00;;;;;;5073925;28;20357;-60
2023/04/30 01:28:23;;;;;;;8.80;5.32;;;11.40;92.90;;;;;;5063430;28;20043;-60
2023/04/30 01:30:49;;;;;;;5.65;5.03;;;11.40;92.80;;;;;;5074412;28;20387;-61
2023/04/30 01:33:15;;;;;;;12.80;5.45;;;11.40;92.20;;;;;;5074258;28;20021;-61
2023/04/30 01:36:12;;;;;;;6.05;5.40;;;11.40;92.50;;;;;;5073973;28;20669;-61
2023/04/30 01:39:00;;;;;;;7.47;5.18;;;11.40;92.60;;;;;;5073972;28;20043;-61
2023/04/30 01:41:46;;;;;;;6.75;6.05;;;11.40;92.70;;;;;;5074075;28;20371;-60
2023/04/30 01:44:54;;;;;;;10.77;6.05;;;11.40;92.10;;;;;;5074074;28;20379;-60
2023/04/30 01:47:39;;;;;;;6.78;6.07;;;11.40;91.50;;;;;;5065443;28;20041;-60
2023/04/30 01:50:08;;;;;;;8.15;5.82;;;11.40;90.80;;;;;;5073909;28;20016;-61
2023/04/30 01:52:46;;;;;;;6.82;5.72;;;11.40;89.80;;;;;;5073516;28;20524;-61
2023/04/30 01:55:16;;;;;;;7.43;5.60;;;11.40;89.10;;;;;;5073716;28;20428;-61
2023/04/30 01:58:04;;;;;;;11.52;6.90;;;11.40;85.50;;;;;;5073762;28;20024;-61
2023/04/30 02:00:30;;;;;;;6.40;5.78;;;11.40;80.30;;;;;;5073079;28;20068;-60
2023/04/30 02:02:56;;;;;;;7.72;6.50;;;11.40;78.60;;;;;;5073723;28;20142;-60
2023/04/30 02:05:22;;;;;;;7.00;6.28;;;11.40;74.50;;;;;;5073569;28;20063;-60
2023/04/30 02:07:50;;;;;;;8.13;5.63;;;11.40;77.90;;;;;;5072399;28;20056;-60
2023/04/30 02:10:17;;;;;;;6.25;5.43;;;11.40;74.50;;;;;;5073564;28;20123;-61
2023/04/30 02:12:43;;;;;;;7.40;6.53;;;11.40;78.80;;;;;;5073537;28;20020;-60
2023/04/30 02:15:09;;;;;;;6.43;5.57;;;11.40;78.80;;;;;;5073195;28;20024;-59
2023/04/30 02:17:35;;;;;;;9.15;6.40;;;11.40;78.40;;;;;;5073101;28;20068;-60
2023/04/30 02:20:01;;;;;;;8.85;6.15;;;11.40;80.70;;;;;;5073304;28;20024;-60
2023/04/30 02:22:26;;;;;;;6.35;5.75;;;11.40;81.00;;;;;;5073338;28;20415;-61
2023/04/30 02:24:54;;;;;;;8.40;6.30;;;11.40;81.20;;;;;;5073265;28;20037;-60
2023/04/30 02:27:21;;;;;;;9.10;5.93;;;11.30;86.10;;;;;;5073034;28;20028;-60
2023/04/30 02:29:47;;;;;;;10.50;6.63;;;11.30;88.00;;;;;;5073294;28;20096;-60
2023/04/30 02:32:13;;;;;;;7.82;6.40;;;11.30;89.00;;;;;;5073121;28;20162;-61
2023/04/30 02:34:39;;;;;;;7.75;6.95;;;11.30;90.30;;;;;;5072993;28;20020;-60
2023/04/30 02:37:05;;;;;;;8.52;7.03;;;11.20;70.00;;;;;;5073208;28;20020;-60
2023/04/30 02:39:31;;;;;;;10.23;7.32;;;11.20;72.20;;;;;;5072686;28;20027;-60
2023/04/30 02:41:57;;;;;;;9.95;6.57;;;11.20;61.50;;;;;;5073199;28;20016;-61
2023/04/30 02:44:22;;;;;;;9.63;6.72;;;11.10;39.90;;;;;;5072454;28;20066;-60
2023/04/30 02:46:48;;;;;;;6.90;6.10;;;11.10;32.00;;;;;;5072862;28;20025;-61
2023/04/30 02:49:14;;;;;;;8.60;6.53;;;11.10;23.00;;;;;;5072919;28;20025;-60
2023/04/30 02:51:39;;;;;;;7.57;6.72;;;11.00;16.60;;;;;;5072499;28;20024;-60
2023/04/30 02:54:05;;;;;;;7.38;6.50;;;11.00;17.80;;;;;;5072539;28;20032;-60
2023/04/30 02:56:31;;;;;;;7.22;6.53;;;11.00;7.80;;;;;;5072712;28;20016;-60
2023/04/30 02:58:57;;;;;;;8.50;7.13;;;11.00;10.50;;;;;;5072134;28;20031;-60
2023/04/30 03:01:22;;;;;;;7.93;6.13;;;11.00;9.10;;;;;;5071698;28;20098;-60
2023/04/30 03:03:48;;;;;;;7.13;6.38;;;11.00;13.80;;;;;;5072744;28;20052;-60
2023/04/30 03:06:14;;;;;;;7.82;6.22;;;11.00;12.90;;;;;;5072556;28;20079;-60
2023/04/30 03:08:39;;;;;;;7.22;6.53;;;11.00;10.70;;;;;;5071992;28;20021;-60
2023/04/30 03:11:05;;;;;;;7.38;6.68;;;11.00;18.80;;;;;;5072173;28;20038;-60
2023/04/30 03:13:30;;;;;;;7.07;6.43;;;10.90;17.10;;;;;;5072116;28;20518;-60
2023/04/30 03:16:00;;;;;;;7.90;7.20;;;10.80;26.20;;;;;;5072449;28;20337;-60
2023/04/30 03:18:27;;;;;;;7.47;6.78;;;10.80;26.40;;;;;;5071979;28;20031;-61
2023/04/30 03:20:53;;;;;;;8.00;7.20;;;10.70;33.50;;;;;;5072332;28;20012;-60
2023/04/30 03:23:19;;;;;;;7.90;7.10;;;10.70;40.00;;;;;;5072030;28;20020;-60
2023/04/30 03:25:45;;;;;;;7.85;6.82;;;10.60;40.10;;;;;;5072017;28;20338;-61
2023/04/30 03:28:10;;;;;;;18.25;7.13;;;10.60;41.70;;;;;;5071989;28;20078;-60
2023/04/30 03:30:36;;;;;;;7.43;6.45;;;10.50;49.40;;;;;;5071783;28;20090;-60
2023/04/30 03:33:02;;;;;;;10.27;6.95;;;10.50;53.00;;;;;;5072175;28;20053;-60
2023/04/30 03:35:27;;;;;;;7.18;6.47;;;10.40;50.90;;;;;;5071920;28;20027;-60
2023/04/30 03:37:53;;;;;;;8.07;7.28;;;10.40;50.30;;;;;;5071599;28;20068;-61
2023/04/30 03:40:19;;;;;;;6.95;6.25;;;10.40;41.10;;;;;;5070565;28;20157;-60
2023/04/30 03:42:44;;;;;;;7.95;7.15;;;10.40;44.00;;;;;;5070633;28;20470;-60
2023/04/30 03:45:10;;;;;;;10.18;6.60;;;10.40;43.80;;;;;;5070515;28;20040;-60
2023/04/30 03:47:36;;;;;;;7.95;7.15;;;10.30;47.90;;;;;;5070679;28;20028;-60
2023/04/30 03:50:02;;;;;;;11.80;6.53;;;10.40;47.30;;;;;;5071012;28;20024;-60
2023/04/30 03:52:30;;;;;;;7.95;7.18;;;10.40;56.90;;;;;;5070999;28;20492;-59
2023/04/30 03:54:55;;;;;;;7.40;6.65;;;10.40;54.30;;;;;;5070876;28;20391;-60
2023/04/30 03:57:21;;;;;;;7.90;7.20;;;10.40;53.70;;;;;;5070738;28;20023;-60
2023/04/30 03:59:48;;;;;;;7.70;7.00;;;10.40;49.10;;;;;;5070661;28;20024;-60
2023/04/30 04:02:14;;;;;;;7.82;7.13;;;10.40;52.80;;;;;;5071046;28;20040;-60
2023/04/30 04:04:41;;;;;;;10.38;7.25;;;10.40;52.50;;;;;;5071522;28;20107;-61
2023/04/30 04:07:08;;;;;;;8.15;7.35;;;10.50;57.30;;;;;;5071163;28;20499;-60
2023/04/30 04:09:34;;;;;;;11.45;8.00;;;10.50;56.40;;;;;;5070802;28;20047;-60
2023/04/30 04:12:00;;;;;;;8.23;7.43;;;10.50;61.10;;;;;;5071327;28;20115;-60
2023/04/30 04:14:26;;;;;;;9.05;7.70;;;10.50;60.90;;;;;;5071314;28;20361;-60
2023/04/30 04:16:51;;;;;;;11.55;7.57;;;10.40;65.20;;;;;;5071564;28;20025;-60
2023/04/30 04:19:17;;;;;;;10.23;7.93;;;10.40;61.00;;;;;;5071313;28;20021;-60
2023/04/30 04:21:43;;;;;;;9.32;8.30;;;10.40;60.90;;;;;;5071543;28;20063;-60
2023/04/30 04:24:34;;;;;;;8.70;7.80;;;10.40;62.10;;;;;;5071239;28;20025;-60
2023/04/30 04:27:01;;;;;;;8.63;7.78;;;10.40;56.40;;;;;;5071034;28;20021;-60
2023/04/30 04:29:27;;;;;;;9.15;7.90;;;10.50;58.60;;;;;;5071066;28;20021;-60
2023/04/30 04:31:54;;;;;;;9.00;8.10;;;10.50;48.50;;;;;;5071210;28;20024;-60
2023/04/30 04:34:20;;;;;;;17.83;14.02;;;10.50;50.10;;;;;;5071122;28;20506;-60
2023/04/30 04:36:46;;;;;;;15.02;10.05;;;10.50;40.70;;;;;;5071007;28;20107;-60
2023/04/30 04:39:12;;;;;;;13.90;9.57;;;10.50;41.50;;;;;;5071124;28;20021;-60
2023/04/30 04:41:38;;;;;;;11.02;9.15;;;10.50;44.70;;;;;;5071012;28;20079;-60
2023/04/30 04:44:03;;;;;;;10.23;9.05;;;10.60;40.20;;;;;;5070993;28;20055;-60
2023/04/30 04:46:30;;;;;;;10.23;9.10;;;10.50;39.50;;;;;;5070793;28;20079;-60
2023/04/30 04:48:57;;;;;;;11.93;10.70;;;10.60;39.30;;;;;;5066994;28;20032;-60
2023/04/30 04:51:23;;;;;;;14.70;8.70;;;10.50;30.20;;;;;;5070178;28;20012;-60
2023/04/30 04:53:49;;;;;;;11.82;9.85;;;10.50;42.90;;;;;;5071265;28;20374;-60
2023/04/30 04:56:15;;;;;;;12.55;8.65;;;10.50;30.00;;;;;;5071141;28;20042;-60
2023/04/30 04:58:41;;;;;;;16.67;14.30;;;10.50;35.00;;;;;;5070938;28;20463;-60
2023/04/30 05:01:08;;;;;;;11.20;9.85;;;10.60;34.10;;;;;;5071222;28;20044;-60
2023/04/30 05:03:37;;;;;;;12.45;10.30;;;10.60;31.40;;;;;;5070596;28;20020;-60
2023/04/30 05:06:03;;;;;;;13.93;10.75;;;10.60;34.20;;;;;;5071060;28;20070;-60
2023/04/30 05:08:29;;;;;;;13.30;10.48;;;10.60;36.50;;;;;;5070862;28;20027;-60
2023/04/30 05:10:54;;;;;;;12.75;10.55;;;10.60;34.60;;;;;;5070811;28;20025;-60
2023/04/30 05:13:20;;;;;;;11.63;10.20;;;10.50;25.10;;;;;;5070863;28;20032;-60
2023/04/30 05:15:48;;;;;;;13.98;11.48;;;10.50;24.40;;;;;;5070644;28;20025;-60
2023/04/30 05:18:14;;;;;;;13.82;12.07;;;10.60;24.50;;;;;;5070756;28;20103;-60
2023/04/30 05:20:39;;;;;;;13.20;11.38;;;10.60;20.50;;;;;;5070714;28;20107;-60
2023/04/30 05:23:05;;;;;;;14.02;10.82;;;10.60;17.10;;;;;;5073745;28;20082;-60
2023/04/30 05:25:31;;;;;;;13.27;11.40;;;10.60;12.00;;;;;;5074225;28;20085;-60
2023/04/30 05:27:57;;;;;;;12.07;10.55;;;10.60;14.00;;;;;;5074499;28;20035;-60
2023/04/30 05:30:23;;;;;;;11.52;9.98;;;10.60;8.60;;;;;;5073876;28;20027;-60
2023/04/30 05:32:50;;;;;;;13.65;10.38;;;10.80;7.00;;;;;;5072998;28;20418;-59
2023/04/30 05:35:17;;;;;;;15.32;9.88;;;10.80;1.00;;;;;;5074146;28;20031;-58
2023/04/30 05:37:43;;;;;;;14.65;10.88;;;10.80;1.00;;;;;;5071808;28;20032;-60
2023/04/30 05:40:09;;;;;;;13.00;9.98;;;10.90;1.00;;;;;;5072913;28;20111;-60
2023/04/30 05:42:35;;;;;;;12.77;10.40;;;10.90;1.00;;;;;;5072826;28;20039;-60
2023/04/30 05:45:01;;;;;;;16.95;13.73;;;11.00;1.00;;;;;;5072598;28;20652;-60
2023/04/30 05:47:27;;;;;;;16.55;13.52;;;11.10;1.00;;;;;;5073154;28;20048;-60
2023/04/30 05:49:53;;;;;;;27.35;19.88;;;11.20;1.00;;;;;;5072642;28;20048;-59
2023/04/30 05:52:19;;;;;;;15.38;12.30;;;11.30;1.00;;;;;;5072537;28;20025;-60
2023/04/30 05:54:44;;;;;;;12.98;10.32;;;11.30;1.00;;;;;;5072816;28;20647;-60
2023/04/30 05:57:10;;;;;;;14.77;12.95;;;11.30;1.00;;;;;;5072537;28;20103;-60
2023/04/30 05:59:37;;;;;;;11.25;9.25;;;11.40;1.00;;;;;;5072044;28;20024;-61
2023/04/30 06:02:02;;;;;;;14.00;10.90;;;11.40;1.00;;;;;;5073132;28;20044;-60
2023/04/30 06:04:28;;;;;;;12.88;10.65;;;11.40;1.00;;;;;;5072313;28;20387;-60
2023/04/30 06:06:53;;;;;;;13.23;9.05;;;11.40;1.00;;;;;;5072474;28;20028;-60
2023/04/30 06:09:19;;;;;;;12.20;9.25;;;11.40;1.00;;;;;;5072227;28;20028;-61
2023/04/30 06:11:49;;;;;;;13.98;8.48;;;11.50;1.00;;;;;;5072583;28;20379;-60
2023/04/30 06:14:15;;;;;;;10.95;9.82;;;11.50;1.00;;;;;;5070653;28;20069;-60
2023/04/30 06:16:41;;;;;;;8.38;7.57;;;11.40;1.00;;;;;;5072060;28;20012;-60
2023/04/30 06:19:06;;;;;;;11.18;8.32;;;11.40;1.00;;;;;;5072245;28;20490;-60
2023/04/30 06:21:32;;;;;;;9.45;7.30;;;11.50;1.00;;;;;;5072008;28;20127;-60
2023/04/30 06:23:58;;;;;;;8.65;7.32;;;11.50;1.00;;;;;;5073337;28;20107;-60
2023/04/30 06:26:23;;;;;;;11.13;7.63;;;11.50;1.00;;;;;;5073117;28;20107;-61
2023/04/30 06:28:49;;;;;;;10.52;8.07;;;11.50;1.00;;;;;;5072927;28;20406;-61
2023/04/30 06:31:15;;;;;;;10.52;8.15;;;11.50;1.00;;;;;;5071433;28;20112;-61
2023/04/30 06:33:40;;;;;;;8.63;7.65;;;11.60;1.00;;;;;;5072262;28;20149;-62
2023/04/30 06:36:06;;;;;;;10.40;8.30;;;11.70;1.00;;;;;;5072674;28;20029;-61
2023/04/30 06:38:32;;;;;;;9.52;8.55;;;11.80;1.00;;;;;;5072534;28;20471;-60
2023/04/30 06:40:57;;;;;;;9.20;7.35;;;11.80;1.00;;;;;;5072237;28;20039;-61
2023/04/30 06:43:23;;;;;;;9.32;7.72;;;12.00;1.00;;;;;;5072149;28;20314;-58
2023/04/30 06:45:49;;;;;;;9.60;8.52;;;12.20;1.00;;;;;;5071310;28;20197;-61
2023/04/30 06:48:14;;;;;;;9.38;8.32;;;12.30;1.00;;;;;;5072463;28;20191;-61
2023/04/30 06:50:56;;;;;;;16.45;7.70;;;12.30;99.90;;;;;;5072112;28;20027;-60
2023/04/30 06:53:21;;;;;;;9.98;8.98;;;12.40;99.90;;;;;;5072057;28;20047;-61
2023/04/30 06:55:47;;;;;;;13.43;11.52;;;12.60;99.90;;;;;;5070942;28;20423;-61
2023/04/30 06:58:13;;;;;;;10.50;8.85;;;12.60;99.90;;;;;;5072005;28;20031;-61
2023/04/30 07:00:39;;;;;;;9.65;8.65;;;12.70;99.90;;;;;;5078441;28;20049;-61
2023/04/30 07:03:05;;;;;;;11.82;10.02;;;12.80;99.90;;;;;;5072557;28;20480;-61
2023/04/30 07:05:31;;;;;;;15.35;9.32;;;12.80;99.90;;;;;;5072300;28;20094;-60
2023/04/30 07:08:35;;;;;;;11.88;9.20;;;12.90;45.50;;;;;;5070290;28;20029;-60
2023/04/30 07:11:01;;;;;;;12.43;8.97;;;12.90;97.10;;;;;;5072111;28;20017;-60
2023/04/30 07:13:26;;;;;;;9.50;7.97;;;13.00;68.60;;;;;;5072048;28;20027;-60
2023/04/30 07:15:52;;;;;;;8.73;6.50;;;12.90;1.00;;;;;;5072322;28;20032;-59
2023/04/30 07:18:18;;;;;;;8.85;7.68;;;12.90;99.90;;;;;;5072107;28;20025;-60
2023/04/30 07:20:44;;;;;;;9.23;8.25;;;12.90;1.00;;;;;;5071991;28;20528;-59
2023/04/30 07:23:10;;;;;;;10.02;8.52;;;12.90;99.90;;;;;;5071503;28;20032;-59
2023/04/30 07:25:35;;;;;;;9.48;7.60;;;12.90;99.90;;;;;;5069771;28;20028;-59
2023/04/30 07:28:01;;;;;;;11.57;8.05;;;13.10;99.90;;;;;;5065982;28;20043;-59
2023/04/30 07:30:27;;;;;;;9.43;7.63;;;13.00;99.90;;;;;;5045579;28;20025;-58
2023/04/30 07:32:52;;;;;;;9.32;6.40;;;12.80;76.00;;;;;;5066672;28;20035;-60
2023/04/30 07:35:18;;;;;;;8.50;7.60;;;12.90;99.90;;;;;;5068287;28;20021;-59
2023/04/30 07:37:44;;;;;;;12.32;7.22;;;13.10;99.90;;;;;;5068087;28;20498;-59
2023/04/30 07:40:12;;;;;;;8.55;7.65;;;13.20;1.00;;;;;;5067808;28;20025;-59
2023/04/30 07:42:40;;;;;;;13.68;7.38;;;13.30;1.00;;;;;;5067349;28;20023;-59
2023/04/30 07:45:07;;;;;;;9.13;7.93;;;13.10;1.00;;;;;;5067338;28;20047;-58
2023/04/30 07:47:32;;;;;;;8.95;7.63;;;13.20;1.00;;;;;;5067913;28;20487;-59
2023/04/30 07:49:58;;;;;;;7.68;6.93;;;13.40;99.90;;;;;;5068271;28;20025;-60
2023/04/30 07:52:24;;;;;;;8.25;7.28;;;13.40;1.00;;;;;;5067933;28;20024;-60
2023/04/30 07:54:49;;;;;;;7.95;7.15;;;13.50;93.20;;;;;;5067724;28;20108;-60
2023/04/30 07:57:15;;;;;;;11.07;8.27;;;13.60;1.00;;;;;;5067934;28;20378;-60
2023/04/30 08:03:02;;;;;;;8.07;7.18;;;13.90;1.00;;;;;;5040723;28;20135;-60
2023/04/30 08:05:28;;;;;;;8.77;7.32;;;14.10;99.90;;;;;;5047790;28;20123;-60
2023/04/30 08:07:54;;;;;;;12.18;7.88;;;14.10;32.50;;;;;;5047742;28;20029;-60
2023/04/30 08:10:20;;;;;;;13.70;12.25;;;14.30;1.00;;;;;;5047534;28;20036;-60
2023/04/30 08:12:45;;;;;;;8.88;7.95;;;14.30;1.00;;;;;;5047644;28;20025;-60
2023/04/30 08:15:11;;;;;;;12.73;8.48;;;14.10;99.90;;;;;;5047559;28;20029;-60
2023/04/30 08:17:36;;;;;;;8.50;7.60;;;14.10;71.90;;;;;;5048451;28;20031;-60
2023/04/30 08:20:03;;;;;;;10.20;7.97;;;14.10;1.00;;;;;;5047517;28;20017;-60
2023/04/30 08:22:29;;;;;;;10.32;7.70;;;14.00;99.90;;;;;;5048015;28;20025;-61
2023/04/30 08:24:55;;;;;;;11.85;8.40;;;14.00;91.60;;;;;;5047985;28;20112;-61
2023/04/30 08:27:22;;;;;;;11.80;7.60;;;14.10;1.00;;;;;;5047754;28;20115;-61
2023/04/30 08:29:47;;;;;;;9.55;8.65;;;14.10;1.00;;;;;;5048214;28;20052;-60
2023/04/30 08:32:13;;;;;;;10.77;8.20;;;14.20;1.00;;;;;;5049184;28;20361;-59
2023/04/30 08:34:42;;;;;;;14.90;9.23;;;14.30;1.00;;;;;;5069701;28;20075;-59
2023/04/30 08:37:08;;;;;;;10.13;7.75;;;14.40;92.80;;;;;;5071382;28;20055;-60
2023/04/30 08:39:33;;;;;;;10.90;8.50;;;14.30;1.00;;;;;;5071125;28;20059;-60
2023/04/30 08:42:04;;;;;;;11.25;9.48;;;14.50;99.90;;;;;;5070693;28;20052;-60
2023/04/30 08:44:32;;;;;;;13.40;8.45;;;14.90;94.90;;;;;;5069721;28;20368;-61
2023/04/30 08:46:58;;;;;;;10.55;8.13;;;15.20;1.00;;;;;;5071175;28;20021;-60
2023/04/30 08:49:24;;;;;;;11.13;9.85;;;15.50;1.00;;;;;;5070703;28;20027;-60
2023/04/30 08:51:51;;;;;;;11.30;9.18;;;15.80;99.90;;;;;;5070571;28;20024;-60
2023/04/30 08:54:17;;;;;;;9.88;8.07;;;16.10;1.00;;;;;;5069060;28;20021;-61
2023/04/30 08:56:46;;;;;;;8.57;7.68;;;15.70;1.00;;;;;;5072975;28;20032;-60
2023/04/30 08:59:13;;;;;;;9.60;8.60;;;15.70;56.60;;;;;;5074524;28;20103;-61
2023/04/30 09:01:39;;;;;;;8.43;7.20;;;15.70;1.00;;;;;;5074047;28;20024;-60
2023/04/30 09:04:05;;;;;;;8.93;7.82;;;16.10;1.00;;;;;;5074795;28;20051;-60
2023/04/30 09:06:31;;;;;;;9.07;7.32;;;15.90;1.00;;;;;;5074684;28;20047;-60
2023/04/30 09:09:10;;;;;;;11.05;7.82;;;15.80;99.90;;;;;;5074842;28;20110;-61
2023/04/30 09:11:36;;;;;;;12.70;6.55;;;15.90;1.00;;;;;;5072549;28;20027;-61
2023/04/30 09:14:02;;;;;;;7.85;6.72;;;16.20;99.90;;;;;;5074572;28;20025;-61
2023/04/30 09:16:43;;;;;;;7.63;6.82;;;16.30;1.00;;;;;;5074356;28;20031;-61
2023/04/30 09:19:21;;;;;;;8.32;7.30;;;16.00;99.90;;;;;;5074684;28;20032;-60
2023/04/30 09:21:47;;;;;;;7.85;7.03;;;15.80;99.90;;;;;;5074618;28;20491;-61
2023/04/30 09:24:12;;;;;;;8.10;7.30;;;15.90;30.00;;;;;;5074511;28;20028;-61
2023/04/30 09:26:38;;;;;;;10.75;6.93;;;16.20;1.00;;;;;;5074211;28;20025;-61
2023/04/30 09:29:09;;;;;;;10.25;6.72;;;15.90;1.00;;;;;;5074164;28;20046;-61
2023/04/30 09:31:39;;;;;;;10.45;7.38;;;15.90;99.90;;;;;;5074239;28;20026;-61
2023/04/30 09:34:05;;;;;;;8.63;7.15;;;15.80;67.70;;;;;;5074289;28;20108;-61
2023/04/30 09:36:31;;;;;;;9.60;7.55;;;15.70;99.90;;;;;;5073825;28;20031;-61
2023/04/30 09:39:12;;;;;;;11.65;6.10;;;15.80;99.90;;;;;;5073953;28;20036;-61
2023/04/30 09:41:38;;;;;;;10.27;7.80;;;16.00;1.00;;;;;;5073902;28;20111;-61
2023/04/30 09:44:04;;;;;;;23.25;14.73;;;16.10;1.00;;;;;;5074155;28;20124;-59
2023/04/30 09:46:32;;;;;;;15.63;10.07;;;15.90;88.60;;;;;;5073877;28;20097;-61
2023/04/30 09:48:59;;;;;;;15.10;8.70;;;16.00;1.00;;;;;;5074014;28;20028;-61
2023/04/30 09:51:26;;;;;;;8.65;5.63;;;16.30;1.00;;;;;;5073839;28;20111;-61
2023/04/30 09:53:52;;;;;;;9.05;6.57;;;16.60;99.90;;;;;;5073860;28;20048;-61
2023/04/30 09:56:23;;;;;;;16.05;6.68;;;17.00;99.90;;;;;;5073754;28;20403;-61
2023/04/30 09:58:54;;;;;;;8.18;6.75;;;17.10;99.90;;;;;;5073896;28;20036;-62
2023/04/30 10:01:21;;;;;;;9.50;6.68;;;17.40;92.30;;;;;;5073831;28;20025;-60
2023/04/30 10:03:48;;;;;;;8.52;6.75;;;17.30;1.00;;;;;;5073261;28;20048;-60
2023/04/30 10:06:15;;;;;;;10.32;7.22;;;17.60;1.00;;;;;;5073636;28;20022;-61
2023/04/30 10:08:49;;;;;;;7.15;6.47;;;18.20;19.10;;;;;;5072751;28;20036;-61
2023/04/30 10:11:20;;;;;;;8.30;6.35;;;18.50;67.00;;;;;;5073472;28;20024;-61
2023/04/30 10:14:11;;;;;;;8.73;6.57;;;18.80;1.00;;;;;;5072386;28;20115;-61
2023/04/30 10:16:46;;;;;;;10.27;5.43;;;18.80;99.90;;;;;;5073380;28;20291;-61
2023/04/30 10:19:22;;;;;;;10.40;7.40;;;18.50;99.30;;;;;;5072867;28;20016;-60
2023/04/30 10:21:48;;;;;;;11.02;6.47;;;18.10;99.90;;;;;;5073288;28;20023;-60
2023/04/30 10:24:17;;;;;;;11.07;5.65;;;17.70;99.90;;;;;;5072524;28;20021;-61
2023/04/30 10:26:44;;;;;;;10.35;6.30;;;17.80;99.90;;;;;;5073254;28;20059;-61
2023/04/30 10:29:12;;;;;;;8.23;6.13;;;17.60;99.90;;;;;;5073213;28;20032;-61
2023/04/30 10:31:39;;;;;;;6.82;5.57;;;17.80;1.00;;;;;;5072573;28;20044;-60
2023/04/30 10:34:49;;;;;;;7.57;6.30;;;17.50;99.90;;;;;;5071361;28;20054;-60
2023/04/30 10:37:42;;;;;;;9.75;5.95;;;17.60;99.90;;;;;;5072799;28;20532;-59
2023/04/30 10:40:08;;;;;;;7.50;5.93;;;17.60;99.90;;;;;;5073024;28;20028;-60
2023/04/30 10:42:35;;;;;;;6.65;5.32;;;17.90;99.90;;;;;;5072164;28;20025;-59
2023/04/30 10:45:03;;;;;;;6.15;5.15;;;18.30;99.90;;;;;;5072701;28;20058;-60
2023/04/30 10:47:29;;;;;;;6.53;5.93;;;18.30;99.90;;;;;;5041503;28;20127;-60
2023/04/30 10:50:07;;;;;;;9.52;5.55;;;18.80;99.90;;;;;;5051941;28;20017;-57
2023/04/30 10:52:33;;;;;;;5.55;5.05;;;18.90;99.90;;;;;;5061580;28;20597;-60
2023/04/30 10:55:07;;;;;;;7.35;6.15;;;18.90;97.80;;;;;;5061644;28;20025;-60
2023/04/30 10:57:44;;;;;;;9.32;4.95;;;18.80;1.00;;;;;;5055078;28;20021;-60
2023/04/30 11:00:10;;;;;;;7.25;4.88;;;19.30;99.90;;;;;;5043385;28;20094;-59
2023/04/30 11:02:47;;;;;;;5.30;4.38;;;19.50;67.90;;;;;;5039653;28;20052;-60
2023/04/30 11:05:14;;;;;;;5.93;4.43;;;19.50;1.00;;;;;;5048939;28;20036;-59
2023/04/30 11:11:03;;;;;;;8.77;4.97;;;20.10;42.90;;;;;;5041279;28;20044;-60
2023/04/30 11:13:39;;;;;;;10.90;4.70;;;20.30;1.00;;;;;;5041540;28;20021;-60
2023/04/30 11:16:05;;;;;;;4.32;3.83;;;20.40;1.00;;;;;;5054287;28;20111;-60
2023/04/30 11:18:32;;;;;;;5.70;4.38;;;19.90;1.00;;;;;;5042257;28;20628;-60
2023/04/30 11:20:57;;;;;;;6.57;4.45;;;19.80;1.00;;;;;;5040795;28;20048;-60
2023/04/30 11:23:25;;;;;;;5.43;4.93;;;19.80;1.00;;;;;;5041426;28;20037;-60
2023/04/30 11:25:54;;;;;;;5.03;4.15;;;19.90;1.00;;;;;;5041532;28;20025;-60
2023/04/30 11:28:27;;;;;;;5.20;3.67;;;20.10;1.00;;;;;;5055359;28;20510;-60
2023/04/30 11:30:54;;;;;;;4.88;3.90;;;20.10;1.00;;;;;;5060648;28;20098;-60
2023/04/30 11:33:20;;;;;;;4.88;4.07;;;19.80;99.90;;;;;;5042506;28;20053;-60
2023/04/30 11:35:50;;;;;;;6.82;3.90;;;20.30;1.00;;;;;;5040635;28;20025;-61
2023/04/30 11:38:17;;;;;;;4.40;3.95;;;20.50;99.90;;;;;;5050343;28;20078;-61
2023/04/30 11:40:43;;;;;;;6.55;3.88;;;21.40;99.90;;;;;;5041821;28;20029;-61
2023/04/30 11:43:23;;;;;;;6.22;3.78;;;21.70;99.90;;;;;;5042112;28;20116;-61
2023/04/30 11:46:01;;;;;;;6.88;3.95;;;22.70;99.90;;;;;;5043970;28;20035;-61
2023/04/30 11:48:31;;;;;;;4.80;3.75;;;23.10;99.90;;;;;;5060162;28;20498;-60
2023/04/30 11:50:57;;;;;;;7.00;3.90;;;23.70;99.90;;;;;;5059757;28;20110;-61
2023/04/30 11:53:27;;;;;;;4.07;3.67;;;23.70;99.90;;;;;;5059064;28;20048;-60
2023/04/30 11:55:54;;;;;;;3.53;3.20;;;24.30;99.90;;;;;;5050977;28;20111;-62
2023/04/30 11:58:20;;;;;;;5.30;3.65;;;24.70;99.90;;;;;;5042695;28;20490;-61
2023/04/30 12:00:47;;;;;;;3.40;2.92;;;24.50;99.90;;;;;;5042565;28;20039;-61
2023/04/30 12:03:14;;;;;;;5.22;3.53;;;22.80;99.90;;;;;;5041844;28;20570;-61
2023/04/30 12:05:40;;;;;;;5.60;3.78;;;22.40;99.90;;;;;;5040592;28;20154;-61
2023/04/30 12:08:08;;;;;;;5.72;3.78;;;22.10;99.90;;;;;;5041549;28;20037;-60
2023/04/30 12:10:34;;;;;;;4.10;3.60;;;22.60;99.90;;;;;;5040610;28;20029;-60
2023/04/30 12:13:01;;;;;;;5.15;3.22;;;23.20;99.90;;;;;;5041273;28;20528;-61
2023/04/30 12:15:27;;;;;;;3.45;2.88;;;24.00;99.90;;;;;;5040034;28;20453;-60
2023/04/30 12:17:58;;;;;;;4.60;3.13;;;24.80;99.90;;;;;;5042462;28;20484;-61
2023/04/30 12:20:29;;;;;;;4.97;3.55;;;25.50;99.90;;;;;;5062308;28;20047;-61
2023/04/30 12:22:57;;;;;;;3.78;3.45;;;24.60;99.90;;;;;;5070690;28;20039;-61
2023/04/30 12:25:23;;;;;;;4.35;3.28;;;24.00;99.90;;;;;;5070157;28;20055;-61
2023/04/30 12:27:52;;;;;;;7.82;3.42;;;24.40;99.90;;;;;;5070097;28;20029;-60
2023/04/30 12:30:24;;;;;;;5.22;3.88;;;24.40;99.90;;;;;;5069238;28;20350;-61
2023/04/30 12:32:52;;;;;;;5.55;3.17;;;23.70;99.90;;;;;;5074319;28;20032;-60
2023/04/30 12:35:20;;;;;;;5.72;3.42;;;23.00;99.90;;;;;;5072358;28;20017;-60
2023/04/30 12:37:49;;;;;;;5.50;2.60;;;23.20;99.90;;;;;;5073584;28;20032;-61
2023/04/30 12:40:15;;;;;;;6.43;3.22;;;24.20;99.90;;;;;;5073179;28;20032;-61
2023/04/30 12:42:42;;;;;;;5.07;2.70;;;25.10;99.90;;;;;;5073784;28;20112;-61
2023/04/30 12:45:09;;;;;;;3.20;2.90;;;25.80;99.90;;;;;;5073923;28;20321;-61
2023/04/30 12:47:42;;;;;;;8.25;2.65;;;26.70;99.90;;;;;;5073669;28;20479;-61
2023/04/30 12:50:11;;;;;;;;;;;26.10;99.90;;;;;;5072923;28;20086;-61
2023/04/30 12:52:39;;;;;;;3.00;2.33;;;26.20;99.90;;;;;;5075017;28;19995;-61
2023/04/30 12:55:19;;;;;;;5.93;3.10;;;27.30;99.90;;;;;;5075049;28;20106;-61
2023/04/30 12:58:12;;;;;;;10.35;3.15;;;26.50;99.90;;;;;;5073722;28;20056;-61